Tropical Cyclones
[Index]
Main Index Home Page Stock Weather Photos Extreme Storms Discussion Storm News and Storm Chasing Reports Tropical Cyclones / Hurricanes / Typhoons Weather Data and Links Wild Fires / Bushfires Weather Observation Techniques Weather Picture Catalogue Tornado Pictures and Reports Stock Video Footage and DVDs for sale
Season 2009-2010 Tropical Cyclone OLGA Track Map
Season 2009-2010 Summaries: [BoM-AU] [JTWC-AU] [JTWC-SIO] [JTWC-SPAC] [JTWC-SH]
<<- Previous TC | JTWC 2009-2010 Season | Next TC ->>

click for intensity scale information  Lat/long Grid: Show Hide

 Date Labels: Show Hide

Joint Typhoon Warning Centre Cyclone Data

Name: OLGA

22 Jan 2010 00:00 UTC to 30 Jan 2010 12:00 UTC

    date/time    lat    long     hPa   cat  kts
2010-01-22 00   14.8   155.4    1007         20          
2010-01-22 06   15.7   154.5    1004         25          
2010-01-22 12   16.1   153.1    1000         30          
2010-01-22 18   16.4   151.7     996         35          
2010-01-23 00   16.7   150.3     993    1    40          
2010-01-23 06   16.5   149.1     989    1    45          
2010-01-23 12   15.9   148.0     989    1    45          
2010-01-23 18   15.7   147.3     989    1    45          
2010-01-24 00   15.8   146.7     989    1    45          
2010-01-24 06   16.2   146.3     993    1    40          
2010-01-24 12   16.8   146.1     996         35          
2010-01-24 18   17.5   145.7    1004         25          
2010-01-25 00   18.3   144.8    1004         25          
2010-01-25 06   18.6   143.3    1004         25          
2010-01-25 12   18.5   141.9    1004         25          
2010-01-25 18   18.4   140.9    1004         25          
2010-01-26 00   18.0   139.9    1000         30          
2010-01-26 06   17.5   138.9    1000         30          
2010-01-26 12   16.9   137.9    1000         30          
2010-01-26 18   16.7   137.5     996         35          
2010-01-27 00   16.5   137.2     996         35          
2010-01-27 06   16.5   136.8     996         35          
2010-01-27 12   16.3   136.4     996         35          
2010-01-27 18   16.3   136.1     996         35          
2010-01-28 00   16.3   135.9    1000         30          
2010-01-28 06   16.2   135.7    1000         30          
2010-01-28 12   16.0   135.8     996         30          
2010-01-28 18   15.9   136.2    1000         30          
2010-01-29 00   15.9   136.7    1000         30          
2010-01-29 06   15.7   137.6    1000         30          
2010-01-29 12   16.3   139.0     989         35          
2010-01-29 18   17.2   140.3     987    1    40          
2010-01-30 00   18.5   141.2     996         35          
2010-01-30 06   19.2   143.3    1000         30          
2010-01-30 12   20.7   145.4    1004         25          
Winds are 1-min average.

Tropical cyclone tracks developed by Michael Bath using data from the Joint Typhoon Warning Centre Best Tracks and Google Maps.


[Australian Severe Weather index] [Copyright Notice] [Email Contacts] [Search This Site] [Privacy Policy]
Document: tropical_cyclone_olga.htm Updated: 28 June 2017